createdAt,value
2023-05-01T00:00:53.554Z,8.76
2023-05-01T00:03:20.642Z,8.75
2023-05-01T00:05:47.697Z,8.73
2023-05-01T00:08:14.676Z,8.72
2023-05-01T00:10:41.492Z,8.70
2023-05-01T00:13:09.803Z,8.68
2023-05-01T00:15:36.616Z,8.68
2023-05-01T00:18:03.689Z,8.64
2023-05-01T00:20:31.269Z,8.62
2023-05-01T00:22:58.165Z,8.60
2023-05-01T00:25:25.062Z,8.59
2023-05-01T00:27:51.862Z,8.60
2023-05-01T00:30:18.777Z,8.60
2023-05-01T00:32:45.671Z,8.60
2023-05-01T00:36:29.661Z,8.60
2023-05-01T00:38:56.470Z,8.56
2023-05-01T00:41:23.276Z,8.53
2023-05-01T00:43:50.066Z,8.53
2023-05-01T00:46:16.867Z,8.51
2023-05-01T00:48:44.591Z,8.48
2023-05-01T00:51:11.450Z,8.43
2023-05-01T00:53:38.713Z,8.39
2023-05-01T00:56:05.786Z,8.36
2023-05-01T00:58:32.544Z,8.34
2023-05-01T01:00:59.470Z,8.31
2023-05-01T01:03:26.625Z,8.27
2023-05-01T01:05:58.733Z,8.26
2023-05-01T01:08:32.594Z,8.24
2023-05-01T01:11:02.058Z,8.22
2023-05-01T01:13:52.340Z,8.20
2023-05-01T01:16:43.171Z,8.19
2023-05-01T01:19:17.295Z,8.17
2023-05-01T01:21:45.280Z,8.15
2023-05-01T01:24:34.045Z,8.13
2023-05-01T09:41:26.491Z,14.56
2023-05-01T09:43:55.734Z,14.75
2023-05-01T09:46:23.941Z,14.85
2023-05-01T09:48:58.023Z,14.95
2023-05-01T09:51:26.401Z,15.08
2023-05-01T09:54:01.281Z,15.23
2023-05-01T09:56:30.748Z,15.40
2023-05-01T09:58:59.747Z,15.56
2023-05-01T10:01:39.177Z,15.69
2023-05-01T10:04:06.123Z,15.82
2023-05-01T10:06:33.029Z,15.89
2023-05-01T10:08:59.998Z,15.94
2023-05-01T10:11:27.417Z,15.90
2023-05-01T10:14:13.422Z,15.90
2023-05-01T10:16:40.439Z,16.01
2023-05-01T10:19:07.200Z,16.16
2023-05-01T10:21:34.720Z,16.30
2023-05-01T10:24:05.491Z,16.44
2023-05-01T10:26:35.843Z,16.56
2023-05-01T10:29:02.796Z,16.65
2023-05-01T10:31:31.982Z,16.59
2023-05-01T10:34:01.326Z,16.46
2023-05-01T10:36:32.930Z,16.51
2023-05-01T10:39:00.429Z,16.58
2023-05-01T10:41:58.474Z,16.61
2023-05-01T10:44:26.378Z,16.69
2023-05-01T10:46:53.611Z,16.79
2023-05-01T10:49:20.965Z,16.91
2023-05-01T10:51:57.830Z,17.09
2023-05-01T10:54:28.419Z,17.31
2023-05-01T10:56:58.067Z,17.44
2023-05-01T10:59:25.461Z,17.53
2023-05-01T11:01:52.458Z,17.68
2023-05-01T11:04:19.126Z,17.87
2023-05-01T11:06:57.735Z,18.02
2023-05-01T11:09:46.855Z,18.15
2023-05-01T11:12:15.398Z,18.26
2023-05-01T11:15:01.871Z,18.37
2023-05-01T11:17:41.151Z,18.47
2023-05-01T11:20:08.849Z,18.54
2023-05-01T11:22:36.688Z,18.65
2023-05-01T11:25:04.353Z,18.82
2023-05-01T11:27:31.705Z,19.06
2023-05-01T11:29:59.003Z,19.18
2023-05-01T11:32:31.616Z,19.24
2023-05-01T11:34:58.598Z,19.37
2023-05-01T11:37:53.095Z,19.45
2023-05-01T11:40:33.139Z,19.39
2023-05-01T11:43:01.592Z,19.30
2023-05-01T11:45:28.509Z,19.41
2023-05-01T11:47:55.737Z,19.64
2023-05-01T11:50:22.978Z,19.91
2023-05-01T11:52:53.000Z,20.18
2023-05-01T11:55:21.037Z,20.42
2023-05-01T11:57:52.085Z,20.68
2023-05-01T12:00:37.121Z,20.99
2023-05-01T12:03:22.641Z,21.30
2023-05-01T12:05:50.295Z,21.56
2023-05-01T12:08:21.034Z,21.76
2023-05-01T12:10:58.190Z,22.00
2023-05-01T12:13:26.393Z,22.25
2023-05-01T12:15:54.062Z,22.46
2023-05-01T12:18:21.416Z,22.67
2023-05-01T12:20:53.624Z,22.89
2023-05-01T12:23:40.820Z,23.04
2023-05-01T12:26:22.969Z,23.21
2023-05-01T12:28:56.838Z,23.40
2023-05-01T12:31:24.484Z,23.31
2023-05-01T12:34:01.878Z,23.10
2023-05-01T12:36:31.103Z,23.01
2023-05-01T12:39:05.827Z,23.06
2023-05-01T12:41:46.935Z,23.20
2023-05-01T12:44:23.847Z,23.15
2023-05-01T12:47:03.479Z,22.87
2023-05-01T12:49:30.985Z,22.71
2023-05-01T12:53:43.219Z,22.77
2023-05-01T12:56:22.368Z,22.89
2023-05-01T12:58:50.523Z,22.78
2023-05-01T13:01:27.450Z,22.59
2023-05-01T13:03:57.166Z,22.52
2023-05-01T13:06:32.921Z,22.43
2023-05-01T13:09:08.792Z,22.22
2023-05-01T13:11:35.984Z,22.02
2023-05-01T13:14:08.315Z,21.89
2023-05-01T13:16:45.754Z,21.75
2023-05-01T13:19:12.582Z,21.51
2023-05-01T13:21:47.620Z,21.22
2023-05-01T13:24:14.241Z,20.82
2023-05-01T13:26:40.899Z,20.47
2023-05-01T13:29:07.951Z,20.14
2023-05-01T13:31:35.009Z,19.88
2023-05-01T13:34:02.572Z,19.67
2023-05-01T13:36:32.829Z,19.49
2023-05-01T13:38:59.489Z,19.38
2023-05-01T13:41:26.632Z,19.17
2023-05-01T13:43:54.806Z,19.01
2023-05-01T13:46:22.515Z,18.92
2023-05-01T13:48:49.750Z,18.83
2023-05-01T13:51:22.675Z,18.75
2023-05-01T13:53:49.757Z,18.72
2023-05-01T13:56:16.444Z,18.69
2023-05-01T13:58:43.118Z,18.69
2023-05-01T14:01:23.507Z,18.69
2023-05-01T14:03:50.379Z,18.67
2023-05-01T14:06:18.596Z,18.61
2023-05-01T14:08:47.135Z,18.54
2023-05-01T14:11:13.990Z,18.53
2023-05-01T14:13:41.975Z,18.56
2023-05-01T14:16:10.982Z,18.64
2023-05-01T14:18:44.785Z,18.74
2023-05-01T14:21:18.324Z,19.41
2023-05-01T14:23:44.992Z,20.95
2023-05-01T14:26:17.021Z,22.97
2023-05-01T14:28:44.625Z,25.31
2023-05-01T14:31:37.542Z,27.72
2023-05-01T14:34:05.680Z,30.47
2023-05-01T14:36:32.590Z,32.61
2023-05-01T14:39:00.251Z,34.26
2023-05-01T14:41:27.724Z,35.68
2023-05-01T14:43:55.066Z,37.10
2023-05-01T14:46:32.894Z,38.23
2023-05-01T14:49:00.338Z,39.19
2023-05-01T14:51:27.979Z,40.09
2023-05-01T14:53:54.824Z,41.07
2023-05-01T14:56:22.272Z,41.88
2023-05-01T14:58:49.154Z,42.49
2023-05-01T15:01:16.642Z,42.65
2023-05-01T15:03:44.924Z,43.06
2023-05-01T15:06:12.064Z,43.73
2023-05-01T15:08:39.786Z,44.25
2023-05-01T15:11:07.150Z,44.65
2023-05-01T15:13:34.572Z,45.15
2023-05-01T15:16:01.296Z,45.62
2023-05-01T15:18:28.479Z,45.76
2023-05-01T15:20:55.176Z,45.64
2023-05-01T15:23:22.057Z,45.83
2023-05-01T15:25:49.962Z,46.10
2023-05-01T15:28:16.756Z,46.27
2023-05-01T15:30:44.211Z,46.43
2023-05-01T15:33:15.378Z,46.68
2023-05-01T15:35:45.074Z,46.88
2023-05-01T15:38:11.760Z,46.97
2023-05-01T15:40:38.528Z,46.97
2023-05-01T15:43:06.081Z,46.87
2023-05-01T15:45:34.004Z,46.73
2023-05-01T15:48:01.357Z,46.34
2023-05-01T15:50:28.243Z,45.89
2023-05-01T15:52:56.330Z,45.62
2023-05-01T15:55:22.961Z,45.42
2023-05-01T15:57:49.978Z,45.37
2023-05-01T16:00:18.199Z,45.39
2023-05-01T16:02:45.262Z,45.34
2023-05-01T16:05:12.057Z,45.23
2023-05-01T16:07:39.718Z,44.82
2023-05-01T16:10:08.040Z,44.33
2023-05-01T16:12:34.756Z,43.99
2023-05-01T16:15:03.116Z,43.63
2023-05-01T16:17:31.913Z,43.37
2023-05-01T16:20:00.688Z,43.23
2023-05-01T16:22:27.840Z,43.08
2023-05-01T16:24:54.833Z,42.81
2023-05-01T16:27:21.715Z,42.39
2023-05-01T16:29:48.447Z,42.05
2023-05-01T16:32:16.016Z,41.72
2023-05-01T16:34:42.852Z,41.44
2023-05-01T16:37:09.526Z,41.15
2023-05-01T16:39:38.083Z,40.87
2023-05-01T16:42:05.734Z,40.67
2023-05-01T16:44:34.226Z,40.35
2023-05-01T16:47:02.753Z,40.06
2023-05-01T16:49:29.540Z,39.66
2023-05-01T16:51:57.657Z,39.17
2023-05-01T16:54:25.281Z,38.81
2023-05-01T16:56:51.963Z,38.35
2023-05-01T16:59:18.688Z,37.84
2023-05-01T17:01:45.337Z,37.29
2023-05-01T17:04:12.904Z,36.55
2023-05-01T17:06:39.545Z,35.65
2023-05-01T17:09:06.422Z,34.61
2023-05-01T17:11:33.555Z,33.50
2023-05-01T17:14:00.244Z,32.38
2023-05-01T17:16:27.456Z,31.21
2023-05-01T17:18:54.730Z,30.19
2023-05-01T17:21:24.074Z,29.28
2023-05-01T17:23:50.888Z,28.41
2023-05-01T17:26:17.472Z,27.62
2023-05-01T17:28:48.501Z,26.87
2023-05-01T17:31:17.871Z,26.13
2023-05-01T17:33:46.421Z,25.45
2023-05-01T17:36:13.130Z,24.80
2023-05-01T17:38:40.759Z,24.22
2023-05-01T17:41:07.368Z,23.67
2023-05-01T17:43:34.811Z,23.13
2023-05-01T17:46:04.220Z,22.66
2023-05-01T17:48:32.642Z,22.19
2023-05-01T17:50:59.311Z,21.75
2023-05-01T17:53:25.981Z,21.35
2023-05-01T17:55:52.818Z,20.97
2023-05-01T17:58:20.779Z,20.64
2023-05-01T18:00:47.518Z,20.32
2023-05-01T18:03:14.851Z,20.03
2023-05-01T18:05:43.690Z,19.77
2023-05-01T18:08:10.726Z,19.48
2023-05-01T18:10:37.950Z,19.17
2023-05-01T18:13:04.854Z,18.89
2023-05-01T18:15:31.845Z,18.65
2023-05-01T18:17:58.755Z,18.45
2023-05-01T18:20:25.913Z,18.28
2023-05-01T18:22:53.802Z,18.11
2023-05-01T18:25:20.555Z,17.96
2023-05-01T18:27:47.463Z,17.82
2023-05-01T18:30:14.658Z,17.67
2023-05-01T18:32:48.378Z,17.52
2023-05-01T18:35:17.488Z,17.38
2023-05-01T18:37:44.591Z,17.24
2023-05-01T18:40:12.362Z,17.12
2023-05-01T18:42:41.389Z,17.02
2023-05-01T18:45:10.728Z,16.91
2023-05-01T18:47:38.730Z,16.81
2023-05-01T18:50:06.146Z,16.73
2023-05-01T18:52:33.112Z,16.63
2023-05-01T18:55:00.446Z,16.52
2023-05-01T18:57:28.135Z,16.41
2023-05-01T18:59:56.059Z,16.32
2023-05-01T19:02:22.993Z,16.24
2023-05-01T19:04:57.257Z,16.13
2023-05-01T19:07:25.470Z,16.03
2023-05-01T19:09:52.500Z,15.94
2023-05-01T19:12:19.372Z,15.88
2023-05-01T19:14:45.997Z,15.81
2023-05-01T19:17:12.828Z,15.72
2023-05-01T19:19:39.703Z,15.66
2023-05-01T19:22:06.702Z,15.59
2023-05-01T19:24:33.261Z,15.53
2023-05-01T19:27:01.028Z,15.45
2023-05-01T19:29:30.688Z,15.38
2023-05-01T19:31:59.679Z,15.31
2023-05-01T19:34:27.176Z,15.24
2023-05-01T19:36:56.261Z,15.19
2023-05-01T19:39:23.165Z,15.14
2023-05-01T19:41:49.983Z,15.10
2023-05-01T19:44:16.626Z,15.05
2023-05-01T19:46:43.858Z,15.01
2023-05-01T19:49:10.470Z,14.96
2023-05-01T19:51:37.359Z,14.93
2023-05-01T19:54:04.243Z,14.88
2023-05-01T19:56:31.080Z,14.84
2023-05-01T19:58:58.104Z,14.79
2023-05-01T20:01:24.788Z,14.75
2023-05-01T20:03:51.414Z,14.70
2023-05-01T20:06:18.608Z,14.66
2023-05-01T20:08:46.679Z,14.61
2023-05-01T20:11:13.814Z,14.58
2023-05-01T20:13:40.616Z,14.54
2023-05-01T20:16:08.923Z,14.51
2023-05-01T20:18:35.770Z,14.47
2023-05-01T20:21:02.444Z,14.43
2023-05-01T20:23:29.149Z,14.40
2023-05-01T20:25:56.072Z,14.36
2023-05-01T20:28:22.806Z,14.34
2023-05-01T20:30:49.791Z,14.31
2023-05-01T20:33:17.565Z,14.30
2023-05-01T20:35:47.101Z,14.28
2023-05-01T20:38:13.798Z,14.24
2023-05-01T20:40:40.717Z,14.21
2023-05-01T20:43:07.535Z,14.19
2023-05-01T20:45:34.683Z,14.15
2023-05-01T20:48:01.725Z,14.13
2023-05-01T20:50:28.560Z,14.11
2023-05-01T20:52:55.749Z,14.09
2023-05-01T20:55:22.874Z,14.07
2023-05-01T20:57:49.485Z,14.04
2023-05-01T21:00:16.703Z,14.01
2023-05-01T21:02:43.875Z,13.98
2023-05-01T21:05:10.830Z,13.95
2023-05-01T21:07:38.433Z,13.92
2023-05-01T21:10:06.533Z,13.89
2023-05-01T21:12:33.497Z,13.86
2023-05-01T21:15:01.966Z,13.82
2023-05-01T21:17:32.443Z,13.80
2023-05-01T21:19:59.607Z,13.77
2023-05-01T21:22:26.756Z,13.73
2023-05-01T21:24:56.342Z,13.70
2023-05-01T21:27:24.283Z,13.68
2023-05-01T21:29:52.282Z,13.64
2023-05-01T21:32:19.934Z,13.62
2023-05-01T21:34:46.924Z,13.58
2023-05-01T21:37:17.961Z,13.53
2023-05-01T21:39:44.873Z,13.48
2023-05-01T21:42:14.198Z,13.44
2023-05-01T21:44:41.605Z,13.38
2023-05-01T21:47:09.966Z,13.34
2023-05-01T21:49:39.227Z,13.30
2023-05-01T21:52:08.192Z,13.25
2023-05-01T21:54:36.109Z,13.22
2023-05-01T21:57:06.968Z,13.18
2023-05-01T21:59:37.905Z,13.15
2023-05-01T22:02:09.712Z,13.10
2023-05-01T22:04:37.024Z,13.07
2023-05-01T22:07:04.065Z,13.02
2023-05-01T22:09:31.772Z,12.96
2023-05-01T22:11:58.542Z,12.93
2023-05-01T22:14:30.872Z,12.91
2023-05-01T22:17:06.908Z,12.88
2023-05-01T22:19:33.958Z,12.83
2023-05-01T22:22:00.764Z,12.81
2023-05-01T22:24:27.674Z,12.77
2023-05-01T22:26:54.487Z,12.74
2023-05-01T22:29:21.528Z,12.72
2023-05-01T22:31:48.359Z,12.70
2023-05-01T22:34:15.600Z,12.65
2023-05-01T22:36:42.526Z,12.62
2023-05-01T22:39:09.460Z,12.57
2023-05-01T22:41:36.162Z,12.53
2023-05-01T22:44:02.951Z,12.48
2023-05-01T22:46:29.764Z,12.43
2023-05-01T22:48:56.605Z,12.37
2023-05-01T22:51:23.213Z,12.31
2023-05-01T22:53:50.156Z,12.27
2023-05-01T22:56:16.955Z,12.25
2023-05-01T22:58:43.875Z,12.22
2023-05-01T23:01:10.537Z,12.20
2023-05-01T23:03:39.026Z,12.19
2023-05-01T23:06:05.923Z,12.15
2023-05-01T23:08:33.564Z,12.13
2023-05-01T23:11:00.585Z,12.08
2023-05-01T23:13:30.632Z,12.05
2023-05-01T23:15:57.450Z,12.03
2023-05-01T23:18:32.278Z,11.97
2023-05-01T23:20:59.282Z,11.94
2023-05-01T23:23:29.811Z,11.89
2023-05-01T23:25:56.560Z,11.84
2023-05-01T23:28:24.225Z,11.77
2023-05-01T23:30:55.266Z,11.70
2023-05-01T23:33:24.448Z,11.65
2023-05-01T23:35:51.163Z,11.60
2023-05-01T23:38:17.907Z,11.56
2023-05-01T23:40:45.002Z,11.53
2023-05-01T23:43:11.798Z,11.51
2023-05-01T23:45:39.357Z,11.48
2023-05-01T23:48:06.406Z,11.47
2023-05-01T23:50:34.710Z,11.44
2023-05-01T23:53:10.099Z,11.40
2023-05-01T23:55:41.184Z,11.37
2023-05-01T23:58:08.692Z,11.33
